sensor_id;sensor_type;location;lat;lon;timestamp;P1;durP1;ratioP1;P2;durP2;ratioP2
72109;SDS011;59983;52.010;5.420;2023-07-20T00:02:01;7.60;;;6.88;;
72109;SDS011;59983;52.010;5.420;2023-07-20T00:04:29;10.15;;;7.22;;
72109;SDS011;59983;52.010;5.420;2023-07-20T00:06:55;7.63;;;7.03;;
72109;SDS011;59983;52.010;5.420;2023-07-20T00:09:22;8.17;;;6.77;;
72109;SDS011;59983;52.010;5.420;2023-07-20T00:11:49;7.82;;;7.13;;
72109;SDS011;59983;52.010;5.420;2023-07-20T00:14:17;7.60;;;6.72;;
72109;SDS011;59983;52.010;5.420;2023-07-20T00:16:44;8.35;;;7.60;;
72109;SDS011;59983;52.010;5.420;2023-07-20T00:19:12;8.32;;;7.50;;
72109;SDS011;59983;52.010;5.420;2023-07-20T00:21:39;8.17;;;7.57;;
72109;SDS011;59983;52.010;5.420;2023-07-20T00:24:06;8.65;;;7.30;;
72109;SDS011;59983;52.010;5.420;2023-07-20T00:26:33;7.85;;;7.18;;
72109;SDS011;59983;52.010;5.420;2023-07-20T00:29:00;8.20;;;7.60;;
72109;SDS011;59983;52.010;5.420;2023-07-20T00:31:26;8.60;;;7.85;;
72109;SDS011;59983;52.010;5.420;2023-07-20T00:33:53;8.73;;;7.30;;
72109;SDS011;59983;52.010;5.420;2023-07-20T00:36:20;7.93;;;7.20;;
72109;SDS011;59983;52.010;5.420;2023-07-20T00:38:47;7.70;;;7.10;;
72109;SDS011;59983;52.010;5.420;2023-07-20T00:41:15;7.88;;;6.85;;
72109;SDS011;59983;52.010;5.420;2023-07-20T00:43:41;10.00;;;7.07;;
72109;SDS011;59983;52.010;5.420;2023-07-20T00:46:08;7.50;;;6.97;;
72109;SDS011;59983;52.010;5.420;2023-07-20T00:48:35;6.28;;;5.78;;
72109;SDS011;59983;52.010;5.420;2023-07-20T00:51:02;6.05;;;5.55;;
72109;SDS011;59983;52.010;5.420;2023-07-20T00:53:30;5.55;;;5.05;;
72109;SDS011;59983;52.010;5.420;2023-07-20T00:55:56;5.20;;;4.88;;
72109;SDS011;59983;52.010;5.420;2023-07-20T00:58:23;5.53;;;5.13;;
72109;SDS011;59983;52.010;5.420;2023-07-20T01:00:51;6.07;;;5.68;;
72109;SDS011;59983;52.010;5.420;2023-07-20T01:03:17;5.53;;;5.10;;
72109;SDS011;59983;52.010;5.420;2023-07-20T01:05:49;6.18;;;5.68;;
72109;SDS011;59983;52.010;5.420;2023-07-20T01:08:37;5.68;;;5.28;;
72109;SDS011;59983;52.010;5.420;2023-07-20T01:11:10;5.50;;;5.20;;
72109;SDS011;59983;52.010;5.420;2023-07-20T01:13:43;5.50;;;5.03;;
72109;SDS011;59983;52.010;5.420;2023-07-20T01:16:10;6.22;;;5.75;;
72109;SDS011;59983;52.010;5.420;2023-07-20T01:18:37;5.88;;;5.32;;
72109;SDS011;59983;52.010;5.420;2023-07-20T01:21:06;6.30;;;5.82;;
72109;SDS011;59983;52.010;5.420;2023-07-20T01:23:57;5.93;;;5.43;;
72109;SDS011;59983;52.010;5.420;2023-07-20T01:32:24;5.65;;;5.35;;
72109;SDS011;59983;52.010;5.420;2023-07-20T01:34:52;5.18;;;4.78;;
72109;SDS011;59983;52.010;5.420;2023-07-20T01:37:20;4.67;;;4.47;;
72109;SDS011;59983;52.010;5.420;2023-07-20T01:39:52;5.25;;;4.95;;
72109;SDS011;59983;52.010;5.420;2023-07-20T01:42:24;4.95;;;4.65;;
72109;SDS011;59983;52.010;5.420;2023-07-20T01:44:51;5.55;;;5.00;;
72109;SDS011;59983;52.010;5.420;2023-07-20T01:47:20;5.13;;;4.82;;
72109;SDS011;59983;52.010;5.420;2023-07-20T01:49:47;4.30;;;3.97;;
72109;SDS011;59983;52.010;5.420;2023-07-20T01:52:14;4.88;;;4.68;;
72109;SDS011;59983;52.010;5.420;2023-07-20T01:54:41;4.70;;;4.40;;
72109;SDS011;59983;52.010;5.420;2023-07-20T01:57:08;4.43;;;4.18;;
72109;SDS011;59983;52.010;5.420;2023-07-20T01:59:34;4.68;;;4.30;;
72109;SDS011;59983;52.010;5.420;2023-07-20T02:02:01;4.63;;;4.33;;
72109;SDS011;59983;52.010;5.420;2023-07-20T02:04:27;4.88;;;4.50;;
72109;SDS011;59983;52.010;5.420;2023-07-20T02:06:54;4.05;;;3.53;;
72109;SDS011;59983;52.010;5.420;2023-07-20T02:09:20;4.50;;;4.30;;
72109;SDS011;59983;52.010;5.420;2023-07-20T02:11:47;4.22;;;3.90;;
72109;SDS011;59983;52.010;5.420;2023-07-20T02:14:14;4.53;;;4.33;;
72109;SDS011;59983;52.010;5.420;2023-07-20T02:16:40;4.32;;;4.07;;
72109;SDS011;59983;52.010;5.420;2023-07-20T02:19:07;4.18;;;3.97;;
72109;SDS011;59983;52.010;5.420;2023-07-20T02:21:34;4.40;;;4.20;;
72109;SDS011;59983;52.010;5.420;2023-07-20T02:24:00;4.40;;;4.20;;
72109;SDS011;59983;52.010;5.420;2023-07-20T02:26:27;4.43;;;4.20;;
72109;SDS011;59983;52.010;5.420;2023-07-20T02:28:54;4.38;;;4.18;;
72109;SDS011;59983;52.010;5.420;2023-07-20T02:31:20;4.65;;;4.20;;
72109;SDS011;59983;52.010;5.420;2023-07-20T02:33:47;4.30;;;4.10;;
72109;SDS011;59983;52.010;5.420;2023-07-20T02:36:14;4.07;;;3.78;;
72109;SDS011;59983;52.010;5.420;2023-07-20T02:38:40;4.43;;;4.23;;
72109;SDS011;59983;52.010;5.420;2023-07-20T02:41:07;4.53;;;4.32;;
72109;SDS011;59983;52.010;5.420;2023-07-20T02:43:33;4.15;;;3.88;;
72109;SDS011;59983;52.010;5.420;2023-07-20T02:46:00;4.15;;;3.95;;
72109;SDS011;59983;52.010;5.420;2023-07-20T02:48:26;3.85;;;3.65;;
72109;SDS011;59983;52.010;5.420;2023-07-20T02:50:53;4.00;;;3.90;;
72109;SDS011;59983;52.010;5.420;2023-07-20T02:53:19;4.55;;;4.30;;
72109;SDS011;59983;52.010;5.420;2023-07-20T02:55:46;4.50;;;3.97;;
72109;SDS011;59983;52.010;5.420;2023-07-20T02:58:13;4.47;;;4.22;;
72109;SDS011;59983;52.010;5.420;2023-07-20T03:00:42;4.10;;;3.90;;
72109;SDS011;59983;52.010;5.420;2023-07-20T03:03:08;4.47;;;4.27;;
72109;SDS011;59983;52.010;5.420;2023-07-20T03:05:36;4.32;;;4.13;;
72109;SDS011;59983;52.010;5.420;2023-07-20T03:08:05;4.45;;;4.25;;
72109;SDS011;59983;52.010;5.420;2023-07-20T03:10:32;3.50;;;3.40;;
72109;SDS011;59983;52.010;5.420;2023-07-20T03:12:59;3.90;;;3.70;;
72109;SDS011;59983;52.010;5.420;2023-07-20T03:15:25;3.87;;;3.70;;
72109;SDS011;59983;52.010;5.420;2023-07-20T03:17:52;4.07;;;3.78;;
72109;SDS011;59983;52.010;5.420;2023-07-20T03:20:18;4.95;;;4.75;;
72109;SDS011;59983;52.010;5.420;2023-07-20T03:22:45;4.07;;;3.88;;
72109;SDS011;59983;52.010;5.420;2023-07-20T03:25:12;5.32;;;5.13;;
72109;SDS011;59983;52.010;5.420;2023-07-20T03:27:39;4.70;;;4.50;;
72109;SDS011;59983;52.010;5.420;2023-07-20T03:30:06;5.78;;;5.38;;
72109;SDS011;59983;52.010;5.420;2023-07-20T03:32:33;5.97;;;5.68;;
72109;SDS011;59983;52.010;5.420;2023-07-20T03:35:00;6.22;;;5.82;;
72109;SDS011;59983;52.010;5.420;2023-07-20T03:37:26;5.38;;;5.05;;
72109;SDS011;59983;52.010;5.420;2023-07-20T03:39:53;5.67;;;5.27;;
72109;SDS011;59983;52.010;5.420;2023-07-20T03:42:19;5.70;;;5.30;;
72109;SDS011;59983;52.010;5.420;2023-07-20T03:44:46;4.53;;;4.22;;
72109;SDS011;59983;52.010;5.420;2023-07-20T03:47:12;5.25;;;4.93;;
72109;SDS011;59983;52.010;5.420;2023-07-20T03:49:39;5.63;;;5.07;;
72109;SDS011;59983;52.010;5.420;2023-07-20T03:52:06;29.57;;;4.33;;
72109;SDS011;59983;52.010;5.420;2023-07-20T03:54:32;20.55;;;4.88;;
72109;SDS011;59983;52.010;5.420;2023-07-20T03:56:59;5.18;;;4.15;;
72109;SDS011;59983;52.010;5.420;2023-07-20T03:59:26;9.30;;;4.10;;
72109;SDS011;59983;52.010;5.420;2023-07-20T04:01:53;4.90;;;4.70;;
72109;SDS011;59983;52.010;5.420;2023-07-20T04:04:20;4.50;;;4.30;;
72109;SDS011;59983;52.010;5.420;2023-07-20T04:06:46;4.50;;;4.30;;
72109;SDS011;59983;52.010;5.420;2023-07-20T04:09:13;4.80;;;4.35;;
72109;SDS011;59983;52.010;5.420;2023-07-20T04:11:39;4.57;;;4.32;;
72109;SDS011;59983;52.010;5.420;2023-07-20T04:14:06;4.45;;;4.25;;
72109;SDS011;59983;52.010;5.420;2023-07-20T04:16:33;4.50;;;4.20;;
72109;SDS011;59983;52.010;5.420;2023-07-20T04:19:00;5.00;;;4.80;;
72109;SDS011;59983;52.010;5.420;2023-07-20T04:21:27;4.07;;;3.88;;
72109;SDS011;59983;52.010;5.420;2023-07-20T04:23:53;5.88;;;5.57;;
72109;SDS011;59983;52.010;5.420;2023-07-20T04:26:20;5.80;;;5.50;;
72109;SDS011;59983;52.010;5.420;2023-07-20T04:28:47;5.53;;;5.23;;
72109;SDS011;59983;52.010;5.420;2023-07-20T04:31:15;5.95;;;5.55;;
72109;SDS011;59983;52.010;5.420;2023-07-20T04:33:42;6.05;;;5.65;;
72109;SDS011;59983;52.010;5.420;2023-07-20T04:36:08;5.75;;;5.45;;
72109;SDS011;59983;52.010;5.420;2023-07-20T04:38:35;6.15;;;5.85;;
72109;SDS011;59983;52.010;5.420;2023-07-20T04:41:02;5.80;;;5.50;;
72109;SDS011;59983;52.010;5.420;2023-07-20T04:43:28;6.15;;;5.78;;
72109;SDS011;59983;52.010;5.420;2023-07-20T04:45:55;5.65;;;5.35;;
72109;SDS011;59983;52.010;5.420;2023-07-20T04:48:22;6.13;;;5.70;;
72109;SDS011;59983;52.010;5.420;2023-07-20T04:50:48;6.18;;;5.78;;
72109;SDS011;59983;52.010;5.420;2023-07-20T04:53:15;6.47;;;6.03;;
72109;SDS011;59983;52.010;5.420;2023-07-20T04:55:47;6.13;;;5.72;;
72109;SDS011;59983;52.010;5.420;2023-07-20T04:58:17;5.55;;;5.25;;
72109;SDS011;59983;52.010;5.420;2023-07-20T05:00:45;6.25;;;5.80;;
72109;SDS011;59983;52.010;5.420;2023-07-20T05:03:11;6.65;;;6.15;;
72109;SDS011;59983;52.010;5.420;2023-07-20T05:05:38;6.90;;;6.40;;
72109;SDS011;59983;52.010;5.420;2023-07-20T05:08:05;6.43;;;6.03;;
72109;SDS011;59983;52.010;5.420;2023-07-20T05:10:31;7.03;;;6.63;;
72109;SDS011;59983;52.010;5.420;2023-07-20T05:12:59;7.20;;;6.78;;
72109;SDS011;59983;52.010;5.420;2023-07-20T05:15:25;6.40;;;6.00;;
72109;SDS011;59983;52.010;5.420;2023-07-20T05:17:52;7.63;;;6.93;;
72109;SDS011;59983;52.010;5.420;2023-07-20T05:20:19;6.70;;;6.28;;
72109;SDS011;59983;52.010;5.420;2023-07-20T05:22:46;7.13;;;6.53;;
72109;SDS011;59983;52.010;5.420;2023-07-20T05:25:13;7.07;;;6.43;;
72109;SDS011;59983;52.010;5.420;2023-07-20T05:27:39;6.45;;;5.90;;
72109;SDS011;59983;52.010;5.420;2023-07-20T05:30:06;6.97;;;6.53;;
72109;SDS011;59983;52.010;5.420;2023-07-20T05:32:33;7.80;;;7.22;;
72109;SDS011;59983;52.010;5.420;2023-07-20T05:35:00;8.13;;;7.22;;
72109;SDS011;59983;52.010;5.420;2023-07-20T05:37:27;8.93;;;8.32;;
72109;SDS011;59983;52.010;5.420;2023-07-20T05:39:53;8.52;;;7.90;;
72109;SDS011;59983;52.010;5.420;2023-07-20T05:42:20;7.83;;;7.30;;
72109;SDS011;59983;52.010;5.420;2023-07-20T05:44:46;8.35;;;7.55;;
72109;SDS011;59983;52.010;5.420;2023-07-20T05:47:18;7.75;;;7.25;;
72109;SDS011;59983;52.010;5.420;2023-07-20T05:49:45;8.63;;;7.95;;
72109;SDS011;59983;52.010;5.420;2023-07-20T05:52:12;8.38;;;7.57;;
72109;SDS011;59983;52.010;5.420;2023-07-20T05:54:39;8.07;;;7.57;;
72109;SDS011;59983;52.010;5.420;2023-07-20T05:57:07;7.88;;;7.15;;
72109;SDS011;59983;52.010;5.420;2023-07-20T05:59:34;7.97;;;7.38;;
72109;SDS011;59983;52.010;5.420;2023-07-20T06:02:00;7.13;;;6.72;;
72109;SDS011;59983;52.010;5.420;2023-07-20T06:04:27;7.80;;;7.30;;
72109;SDS011;59983;52.010;5.420;2023-07-20T06:06:53;6.83;;;6.27;;
72109;SDS011;59983;52.010;5.420;2023-07-20T06:09:20;7.25;;;6.65;;
72109;SDS011;59983;52.010;5.420;2023-07-20T06:11:46;7.32;;;6.72;;
72109;SDS011;59983;52.010;5.420;2023-07-20T06:14:13;6.68;;;6.28;;
72109;SDS011;59983;52.010;5.420;2023-07-20T06:16:39;7.45;;;6.95;;
72109;SDS011;59983;52.010;5.420;2023-07-20T06:19:06;6.90;;;6.50;;
72109;SDS011;59983;52.010;5.420;2023-07-20T06:21:33;7.78;;;5.75;;
72109;SDS011;59983;52.010;5.420;2023-07-20T06:23:59;6.18;;;5.10;;
72109;SDS011;59983;52.010;5.420;2023-07-20T06:26:26;6.03;;;5.63;;
72109;SDS011;59983;52.010;5.420;2023-07-20T06:28:53;5.10;;;4.80;;
72109;SDS011;59983;52.010;5.420;2023-07-20T06:31:19;6.00;;;5.50;;
72109;SDS011;59983;52.010;5.420;2023-07-20T06:33:46;5.55;;;5.25;;
72109;SDS011;59983;52.010;5.420;2023-07-20T06:36:12;5.45;;;5.00;;
72109;SDS011;59983;52.010;5.420;2023-07-20T06:38:39;5.13;;;4.82;;
72109;SDS011;59983;52.010;5.420;2023-07-20T06:41:06;5.40;;;4.95;;
72109;SDS011;59983;52.010;5.420;2023-07-20T06:43:36;4.87;;;4.57;;
72109;SDS011;59983;52.010;5.420;2023-07-20T06:46:05;4.07;;;3.88;;
72109;SDS011;59983;52.010;5.420;2023-07-20T06:48:32;4.32;;;4.03;;
72109;SDS011;59983;52.010;5.420;2023-07-20T06:51:19;3.53;;;3.33;;
72109;SDS011;59983;52.010;5.420;2023-07-20T06:53:46;4.75;;;4.47;;
72109;SDS011;59983;52.010;5.420;2023-07-20T06:56:13;4.70;;;4.40;;
72109;SDS011;59983;52.010;5.420;2023-07-20T06:58:40;5.10;;;3.97;;
72109;SDS011;59983;52.010;5.420;2023-07-20T07:01:07;4.60;;;4.13;;
72109;SDS011;59983;52.010;5.420;2023-07-20T07:03:34;4.13;;;3.75;;
72109;SDS011;59983;52.010;5.420;2023-07-20T07:06:01;3.15;;;3.05;;
72109;SDS011;59983;52.010;5.420;2023-07-20T07:08:28;3.93;;;3.73;;
72109;SDS011;59983;52.010;5.420;2023-07-20T07:10:54;4.40;;;4.10;;
72109;SDS011;59983;52.010;5.420;2023-07-20T07:13:21;5.45;;;4.03;;
72109;SDS011;59983;52.010;5.420;2023-07-20T07:15:48;4.72;;;4.40;;
72109;SDS011;59983;52.010;5.420;2023-07-20T07:18:14;4.72;;;4.53;;
72109;SDS011;59983;52.010;5.420;2023-07-20T07:20:41;4.73;;;4.43;;
72109;SDS011;59983;52.010;5.420;2023-07-20T07:23:07;4.20;;;3.90;;
72109;SDS011;59983;52.010;5.420;2023-07-20T07:25:34;4.00;;;3.80;;
72109;SDS011;59983;52.010;5.420;2023-07-20T07:28:01;4.38;;;4.07;;
72109;SDS011;59983;52.010;5.420;2023-07-20T07:30:27;3.90;;;3.70;;
72109;SDS011;59983;52.010;5.420;2023-07-20T07:32:54;4.00;;;3.80;;
72109;SDS011;59983;52.010;5.420;2023-07-20T07:35:21;4.00;;;3.70;;
72109;SDS011;59983;52.010;5.420;2023-07-20T07:37:47;4.38;;;4.00;;
72109;SDS011;59983;52.010;5.420;2023-07-20T07:40:31;3.80;;;3.50;;
72109;SDS011;59983;52.010;5.420;2023-07-20T07:42:58;2.88;;;2.75;;
72109;SDS011;59983;52.010;5.420;2023-07-20T07:45:25;3.50;;;3.20;;
72109;SDS011;59983;52.010;5.420;2023-07-20T07:47:52;2.80;;;2.70;;
72109;SDS011;59983;52.010;5.420;2023-07-20T07:50:18;2.92;;;2.72;;
72109;SDS011;59983;52.010;5.420;2023-07-20T07:52:45;2.60;;;2.40;;
72109;SDS011;59983;52.010;5.420;2023-07-20T07:55:11;2.15;;;2.05;;
72109;SDS011;59983;52.010;5.420;2023-07-20T07:57:38;3.43;;;2.90;;
72109;SDS011;59983;52.010;5.420;2023-07-20T08:00:05;1.95;;;1.85;;
72109;SDS011;59983;52.010;5.420;2023-07-20T08:02:37;1.90;;;1.80;;
72109;SDS011;59983;52.010;5.420;2023-07-20T08:05:03;1.67;;;1.58;;
72109;SDS011;59983;52.010;5.420;2023-07-20T08:07:30;1.77;;;1.70;;
72109;SDS011;59983;52.010;5.420;2023-07-20T08:09:56;1.47;;;1.47;;
72109;SDS011;59983;52.010;5.420;2023-07-20T08:12:23;2.65;;;1.77;;
72109;SDS011;59983;52.010;5.420;2023-07-20T08:14:51;1.73;;;1.63;;
72109;SDS011;59983;52.010;5.420;2023-07-20T08:17:17;2.00;;;1.90;;
72109;SDS011;59983;52.010;5.420;2023-07-20T08:19:45;1.80;;;1.70;;
72109;SDS011;59983;52.010;5.420;2023-07-20T08:22:12;1.63;;;1.60;;
72109;SDS011;59983;52.010;5.420;2023-07-20T08:24:39;1.70;;;1.60;;
72109;SDS011;59983;52.010;5.420;2023-07-20T08:27:07;1.95;;;1.85;;
72109;SDS011;59983;52.010;5.420;2023-07-20T08:29:35;1.75;;;1.65;;
72109;SDS011;59983;52.010;5.420;2023-07-20T08:32:01;1.90;;;1.80;;
72109;SDS011;59983;52.010;5.420;2023-07-20T08:34:29;2.40;;;2.20;;
72109;SDS011;59983;52.010;5.420;2023-07-20T08:36:58;2.55;;;1.70;;
72109;SDS011;59983;52.010;5.420;2023-07-20T08:39:25;2.22;;;1.77;;
72109;SDS011;59983;52.010;5.420;2023-07-20T08:41:51;2.05;;;1.58;;
72109;SDS011;59983;52.010;5.420;2023-07-20T08:44:18;2.05;;;1.80;;
72109;SDS011;59983;52.010;5.420;2023-07-20T08:46:45;1.67;;;1.57;;
72109;SDS011;59983;52.010;5.420;2023-07-20T08:49:14;1.52;;;1.40;;
72109;SDS011;59983;52.010;5.420;2023-07-20T08:51:43;1.60;;;1.50;;
72109;SDS011;59983;52.010;5.420;2023-07-20T08:54:12;1.50;;;1.38;;
72109;SDS011;59983;52.010;5.420;2023-07-20T08:56:40;1.20;;;1.10;;
72109;SDS011;59983;52.010;5.420;2023-07-20T08:59:08;1.57;;;1.47;;
72109;SDS011;59983;52.010;5.420;2023-07-20T09:01:36;1.60;;;1.50;;
72109;SDS011;59983;52.010;5.420;2023-07-20T09:04:05;1.40;;;1.30;;
72109;SDS011;59983;52.010;5.420;2023-07-20T09:06:32;1.38;;;1.27;;
72109;SDS011;59983;52.010;5.420;2023-07-20T09:09:01;1.23;;;1.17;;
72109;SDS011;59983;52.010;5.420;2023-07-20T09:11:28;1.77;;;1.37;;
72109;SDS011;59983;52.010;5.420;2023-07-20T09:16:47;1.77;;;1.38;;
72109;SDS011;59983;52.010;5.420;2023-07-20T09:19:21;2.38;;;0.90;;
72109;SDS011;59983;52.010;5.420;2023-07-20T09:21:48;1.13;;;1.10;;
72109;SDS011;59983;52.010;5.420;2023-07-20T09:24:17;5.60;;;1.33;;
72109;SDS011;59983;52.010;5.420;2023-07-20T09:26:45;1.27;;;1.27;;
72109;SDS011;59983;52.010;5.420;2023-07-20T09:29:14;1.40;;;1.20;;
72109;SDS011;59983;52.010;5.420;2023-07-20T09:31:58;0.90;;;0.90;;
72109;SDS011;59983;52.010;5.420;2023-07-20T09:34:28;1.35;;;1.20;;
72109;SDS011;59983;52.010;5.420;2023-07-20T09:36:59;1.30;;;1.20;;
72109;SDS011;59983;52.010;5.420;2023-07-20T09:39:26;1.75;;;1.45;;
72109;SDS011;59983;52.010;5.420;2023-07-20T09:41:59;1.60;;;1.50;;
72109;SDS011;59983;52.010;5.420;2023-07-20T09:44:30;2.38;;;1.58;;
72109;SDS011;59983;52.010;5.420;2023-07-20T09:46:59;1.40;;;1.30;;
72109;SDS011;59983;52.010;5.420;2023-07-20T09:49:30;1.73;;;1.40;;
72109;SDS011;59983;52.010;5.420;2023-07-20T09:52:17;1.50;;;1.45;;
72109;SDS011;59983;52.010;5.420;2023-07-20T09:55:05;2.00;;;1.90;;
72109;SDS011;59983;52.010;5.420;2023-07-20T09:57:33;2.13;;;1.73;;
72109;SDS011;59983;52.010;5.420;2023-07-20T10:00:01;1.50;;;1.40;;
72109;SDS011;59983;52.010;5.420;2023-07-20T10:02:43;1.70;;;1.20;;
72109;SDS011;59983;52.010;5.420;2023-07-20T10:05:12;1.48;;;1.10;;
72109;SDS011;59983;52.010;5.420;2023-07-20T10:07:51;1.33;;;1.30;;
72109;SDS011;59983;52.010;5.420;2023-07-20T10:10:40;1.30;;;1.30;;
72109;SDS011;59983;52.010;5.420;2023-07-20T10:13:10;1.42;;;1.33;;
72109;SDS011;59983;52.010;5.420;2023-07-20T10:15:46;1.40;;;1.30;;
72109;SDS011;59983;52.010;5.420;2023-07-20T10:18:30;1.95;;;1.23;;
72109;SDS011;59983;52.010;5.420;2023-07-20T10:21:01;2.38;;;1.55;;
72109;SDS011;59983;52.010;5.420;2023-07-20T10:23:33;2.08;;;1.60;;
72109;SDS011;59983;52.010;5.420;2023-07-20T10:26:00;1.50;;;1.40;;
72109;SDS011;59983;52.010;5.420;2023-07-20T10:28:28;1.50;;;1.40;;
72109;SDS011;59983;52.010;5.420;2023-07-20T10:30:55;1.98;;;1.73;;
72109;SDS011;59983;52.010;5.420;2023-07-20T10:33:22;1.00;;;0.90;;
72109;SDS011;59983;52.010;5.420;2023-07-20T10:36:00;1.00;;;1.00;;
72109;SDS011;59983;52.010;5.420;2023-07-20T10:38:39;1.30;;;1.10;;
72109;SDS011;59983;52.010;5.420;2023-07-20T10:41:17;1.43;;;1.33;;
72109;SDS011;59983;52.010;5.420;2023-07-20T10:43:47;1.63;;;1.48;;
72109;SDS011;59983;52.010;5.420;2023-07-20T10:46:15;1.60;;;1.50;;
72109;SDS011;59983;52.010;5.420;2023-07-20T10:49:06;1.98;;;1.30;;
72109;SDS011;59983;52.010;5.420;2023-07-20T10:52:16;1.98;;;1.30;;
72109;SDS011;59983;52.010;5.420;2023-07-20T10:56:51;1.38;;;1.30;;
72109;SDS011;59983;52.010;5.420;2023-07-20T11:01:54;1.20;;;1.20;;
72109;SDS011;59983;52.010;5.420;2023-07-20T11:04:42;1.67;;;1.58;;
72109;SDS011;59983;52.010;5.420;2023-07-20T11:07:10;1.33;;;1.20;;
72109;SDS011;59983;52.010;5.420;2023-07-20T11:09:41;1.20;;;1.05;;
72109;SDS011;59983;52.010;5.420;2023-07-20T11:12:12;1.02;;;1.02;;
72109;SDS011;59983;52.010;5.420;2023-07-20T11:14:53;1.92;;;1.83;;
72109;SDS011;59983;52.010;5.420;2023-07-20T11:17:28;2.45;;;1.50;;
72109;SDS011;59983;52.010;5.420;2023-07-20T11:19:59;1.80;;;1.70;;
72109;SDS011;59983;52.010;5.420;2023-07-20T11:22:30;1.35;;;1.25;;
72109;SDS011;59983;52.010;5.420;2023-07-20T11:24:58;1.45;;;1.35;;
72109;SDS011;59983;52.010;5.420;2023-07-20T11:27:25;1.40;;;1.30;;
72109;SDS011;59983;52.010;5.420;2023-07-20T11:29:52;1.77;;;1.35;;
72109;SDS011;59983;52.010;5.420;2023-07-20T11:32:22;1.20;;;1.13;;
72109;SDS011;59983;52.010;5.420;2023-07-20T11:34:49;1.38;;;1.27;;
72109;SDS011;59983;52.010;5.420;2023-07-20T11:37:17;2.33;;;1.73;;
72109;SDS011;59983;52.010;5.420;2023-07-20T11:39:45;2.40;;;1.58;;
72109;SDS011;59983;52.010;5.420;2023-07-20T11:42:11;3.47;;;1.90;;
72109;SDS011;59983;52.010;5.420;2023-07-20T11:44:39;1.70;;;1.57;;
72109;SDS011;59983;52.010;5.420;2023-07-20T11:47:12;1.52;;;1.42;;
72109;SDS011;59983;52.010;5.420;2023-07-20T11:49:40;1.38;;;1.27;;
72109;SDS011;59983;52.010;5.420;2023-07-20T11:52:08;1.35;;;1.08;;
72109;SDS011;59983;52.010;5.420;2023-07-20T11:54:40;1.30;;;1.15;;
72109;SDS011;59983;52.010;5.420;2023-07-20T11:57:16;1.30;;;1.30;;
72109;SDS011;59983;52.010;5.420;2023-07-20T11:59:53;1.60;;;1.50;;
72109;SDS011;59983;52.010;5.420;2023-07-20T12:02:26;1.90;;;1.08;;
72109;SDS011;59983;52.010;5.420;2023-07-20T12:04:54;2.08;;;1.08;;
72109;SDS011;59983;52.010;5.420;2023-07-20T12:07:22;1.10;;;1.10;;
72109;SDS011;59983;52.010;5.420;2023-07-20T12:10:07;1.00;;;1.00;;
72109;SDS011;59983;52.010;5.420;2023-07-20T12:12:37;1.52;;;1.42;;
72109;SDS011;59983;52.010;5.420;2023-07-20T12:17:49;1.60;;;1.20;;
72109;SDS011;59983;52.010;5.420;2023-07-20T12:20:31;1.45;;;1.17;;
72109;SDS011;59983;52.010;5.420;2023-07-20T12:22:59;0.80;;;0.80;;
72109;SDS011;59983;52.010;5.420;2023-07-20T12:28:11;1.42;;;1.27;;
72109;SDS011;59983;52.010;5.420;2023-07-20T12:30:40;1.10;;;1.00;;
72109;SDS011;59983;52.010;5.420;2023-07-20T12:33:08;1.10;;;1.10;;
72109;SDS011;59983;52.010;5.420;2023-07-20T12:35:35;1.40;;;1.00;;
72109;SDS011;59983;52.010;5.420;2023-07-20T12:38:02;1.25;;;0.95;;
72109;SDS011;59983;52.010;5.420;2023-07-20T12:40:29;1.02;;;0.90;;
72109;SDS011;59983;52.010;5.420;2023-07-20T12:42:56;1.20;;;1.10;;
72109;SDS011;59983;52.010;5.420;2023-07-20T12:45:23;1.10;;;1.00;;
72109;SDS011;59983;52.010;5.420;2023-07-20T12:47:50;1.10;;;1.00;;
72109;SDS011;59983;52.010;5.420;2023-07-20T12:50:16;1.38;;;1.25;;
72109;SDS011;59983;52.010;5.420;2023-07-20T12:52:43;1.23;;;1.13;;
72109;SDS011;59983;52.010;5.420;2023-07-20T12:55:10;1.20;;;1.10;;
72109;SDS011;59983;52.010;5.420;2023-07-20T12:57:37;0.85;;;0.82;;
72109;SDS011;59983;52.010;5.420;2023-07-20T13:00:05;1.20;;;1.10;;
72109;SDS011;59983;52.010;5.420;2023-07-20T13:02:34;1.67;;;0.85;;
72109;SDS011;59983;52.010;5.420;2023-07-20T13:05:02;1.00;;;0.82;;
72109;SDS011;59983;52.010;5.420;2023-07-20T13:07:30;0.75;;;0.75;;
72109;SDS011;59983;52.010;5.420;2023-07-20T13:10:02;0.93;;;0.90;;
72109;SDS011;59983;52.010;5.420;2023-07-20T13:12:30;1.87;;;1.30;;
72109;SDS011;59983;52.010;5.420;2023-07-20T13:14:58;1.77;;;0.80;;
72109;SDS011;59983;52.010;5.420;2023-07-20T13:17:27;1.40;;;1.00;;
72109;SDS011;59983;52.010;5.420;2023-07-20T13:19:54;1.20;;;1.10;;
72109;SDS011;59983;52.010;5.420;2023-07-20T13:22:22;1.35;;;1.25;;
72109;SDS011;59983;52.010;5.420;2023-07-20T13:24:49;1.57;;;1.43;;
72109;SDS011;59983;52.010;5.420;2023-07-20T13:27:17;1.70;;;1.30;;
72109;SDS011;59983;52.010;5.420;2023-07-20T13:29:45;11.95;;;3.25;;
72109;SDS011;59983;52.010;5.420;2023-07-20T13:32:14;1.75;;;1.60;;
72109;SDS011;59983;52.010;5.420;2023-07-20T13:34:42;1.67;;;1.58;;
72109;SDS011;59983;52.010;5.420;2023-07-20T13:37:10;2.03;;;1.37;;
72109;SDS011;59983;52.010;5.420;2023-07-20T13:39:39;3.60;;;1.73;;
72109;SDS011;59983;52.010;5.420;2023-07-20T13:42:06;3.03;;;1.77;;
72109;SDS011;59983;52.010;5.420;2023-07-20T13:44:33;2.13;;;1.80;;
72109;SDS011;59983;52.010;5.420;2023-07-20T13:47:00;1.70;;;1.60;;
72109;SDS011;59983;52.010;5.420;2023-07-20T13:49:30;3.47;;;2.03;;
72109;SDS011;59983;52.010;5.420;2023-07-20T13:52:11;2.10;;;1.85;;
72109;SDS011;59983;52.010;5.420;2023-07-20T13:54:40;3.58;;;1.77;;
72109;SDS011;59983;52.010;5.420;2023-07-20T13:57:14;1.92;;;1.70;;
72109;SDS011;59983;52.010;5.420;2023-07-20T13:59:42;1.83;;;1.73;;
72109;SDS011;59983;52.010;5.420;2023-07-20T14:02:09;1.80;;;1.37;;
72109;SDS011;59983;52.010;5.420;2023-07-20T14:04:39;2.92;;;1.33;;
72109;SDS011;59983;52.010;5.420;2023-07-20T14:07:06;1.75;;;1.58;;
72109;SDS011;59983;52.010;5.420;2023-07-20T14:09:33;1.70;;;1.50;;
72109;SDS011;59983;52.010;5.420;2023-07-20T14:11:59;1.77;;;1.50;;
72109;SDS011;59983;52.010;5.420;2023-07-20T14:14:29;1.63;;;1.37;;
72109;SDS011;59983;52.010;5.420;2023-07-20T14:16:55;1.83;;;1.60;;
72109;SDS011;59983;52.010;5.420;2023-07-20T14:19:22;2.00;;;1.42;;
72109;SDS011;59983;52.010;5.420;2023-07-20T14:21:49;1.35;;;1.25;;
72109;SDS011;59983;52.010;5.420;2023-07-20T14:24:16;1.73;;;1.42;;
72109;SDS011;59983;52.010;5.420;2023-07-20T14:26:44;1.90;;;1.33;;
72109;SDS011;59983;52.010;5.420;2023-07-20T14:29:12;1.40;;;1.30;;
72109;SDS011;59983;52.010;5.420;2023-07-20T14:31:39;1.48;;;1.38;;
72109;SDS011;59983;52.010;5.420;2023-07-20T14:34:05;1.30;;;1.20;;
72109;SDS011;59983;52.010;5.420;2023-07-20T14:36:32;2.75;;;1.33;;
72109;SDS011;59983;52.010;5.420;2023-07-20T14:39:00;2.97;;;1.60;;
72109;SDS011;59983;52.010;5.420;2023-07-20T14:41:27;1.77;;;1.15;;
72109;SDS011;59983;52.010;5.420;2023-07-20T14:43:53;2.72;;;1.75;;
72109;SDS011;59983;52.010;5.420;2023-07-20T14:46:20;1.75;;;1.65;;
72109;SDS011;59983;52.010;5.420;2023-07-20T14:48:47;2.97;;;1.58;;
72109;SDS011;59983;52.010;5.420;2023-07-20T14:51:14;2.47;;;1.87;;
72109;SDS011;59983;52.010;5.420;2023-07-20T14:53:40;1.80;;;1.70;;
72109;SDS011;59983;52.010;5.420;2023-07-20T14:56:08;1.60;;;1.50;;
72109;SDS011;59983;52.010;5.420;2023-07-20T14:58:34;5.05;;;1.70;;
72109;SDS011;59983;52.010;5.420;2023-07-20T15:01:01;1.90;;;1.80;;
72109;SDS011;59983;52.010;5.420;2023-07-20T15:03:29;2.10;;;1.40;;
72109;SDS011;59983;52.010;5.420;2023-07-20T15:05:57;2.28;;;1.25;;
72109;SDS011;59983;52.010;5.420;2023-07-20T15:08:24;1.35;;;1.20;;
72109;SDS011;59983;52.010;5.420;2023-07-20T15:10:51;1.25;;;1.13;;
72109;SDS011;59983;52.010;5.420;2023-07-20T15:13:17;3.13;;;1.33;;
72109;SDS011;59983;52.010;5.420;2023-07-20T15:15:44;1.87;;;1.60;;